| time (UTC) | temp C | wind direction | speed KPH | gust KPH | rain 1hr cm | rain 24hr cm | rain mn cm | humidity % | barometer mb |
| 20260504203019 | 23 | 168 | 8.0 | 14.5 | 0.00 | 0.00 | 0.00 | 44 | 1015.4 |
| 20260504202020 | 23 | 146 | 8.0 | 16.1 | 0.00 | 0.00 | 0.00 | 43 | 1015.7 |
| 20260504201020 | 23 | 140 | 8.0 | 20.9 | 0.00 | 0.00 | 0.00 | 44 | 1015.7 |
| 20260504200020 | 23 | 190 | 8.0 | 14.5 | 0.00 | 0.00 | 0.00 | 44 | 1015.6 |
| 20260504195020 | 23 | 185 | 8.0 | 16.1 | 0.00 | 0.00 | 0.00 | 43 | 1015.7 |
| 20260504194020 | 23 | 196 | 8.0 | 16.1 | 0.00 | 0.00 | 0.00 | 43 | 1015.8 |
| 20260504193021 | 23 | 183 | 6.4 | 12.9 | 0.00 | 0.00 | 0.00 | 43 | 1015.9 |
| 20260504192020 | 23 | 220 | 8.0 | 14.5 | 0.00 | 0.00 | 0.00 | 43 | 1016.1 |
| 20260504191021 | 23 | 228 | 6.4 | 16.1 | 0.00 | 0.00 | 0.00 | 43 | 1015.9 |
| 20260504190018 | 23 | 194 | 6.4 | 14.5 | 0.00 | 0.00 | 0.00 | 43 | 1016.2 |
| 20260504185021 | 23 | 199 | 6.4 | 17.7 | 0.00 | 0.00 | 0.00 | 43 | 1016.0 |
| 20260504184021 | 23 | 194 | 4.8 | 11.3 | 0.00 | 0.00 | 0.00 | 43 | 1016.1 |
| 20260504183021 | 22 | 201 | 8.0 | 14.5 | 0.00 | 0.00 | 0.00 | 42 | 1016.5 |
| 20260504182018 | 23 | 173 | 8.0 | 14.5 | 0.00 | 0.00 | 0.00 | 43 | 1016.2 |
| 20260504181018 | 23 | 192 | 6.4 | 12.9 | 0.00 | 0.00 | 0.00 | 43 | 1016.2 |
| 20260504180139 | 23 | 174 | 4.8 | 12.9 | 0.00 | 0.00 | 0.00 | 43 | 1016.2 |
| 20260504175018 | 23 | 213 | 8.0 | 16.1 | 0.00 | 0.00 | 0.00 | 43 | 1016.4 |
| 20260504174019 | 23 | 144 | 6.4 | 14.5 | 0.00 | 0.00 | 0.00 | 43 | 1016.4 |
| 20260504173022 | 22 | 180 | 6.4 | 16.1 | 0.00 | 0.00 | 0.00 | 44 | 1016.8 |
| 20260504172019 | 22 | 143 | 6.4 | 11.3 | 0.00 | 0.00 | 0.00 | 43 | 1016.7 |
| 20260504171039 | 22 | 122 | 4.8 | 11.3 | 0.00 | 0.00 | 0.00 | 43 | 1016.5 |
| 20260504151018 | 21 | 55 | 4.8 | 11.3 | 0.00 | 0.00 | 0.00 | 57 | 1017.4 |
| 20260504141040 | 20 | 59 | 4.8 | 14.5 | 0.00 | 0.00 | 0.00 | 61 | 1017.5 |
| 20260504081020 | 16 | 214 | 1.6 | 4.8 | 0.00 | 0.00 | 0.00 | 72 | 1018.8 |
| 20260504050020 | 17 | 259 | 0.0 | 3.2 | 0.00 | 0.00 | 0.00 | 74 | 1020.0 |
| 20260504045020 | 18 | 246 | 1.6 | 6.4 | 0.00 | 0.00 | 0.00 | 74 | 1019.7 |
| 20260504044020 | 18 | 272 | 3.2 | 6.4 | 0.00 | 0.00 | 0.00 | 74 | 1019.3 |
| 20260504043020 | 18 | 281 | 1.6 | 4.8 | 0.00 | 0.00 | 0.00 | 73 | 1019.6 |
| 20260504042020 | 18 | 265 | 1.6 | 4.8 | 0.00 | 0.00 | 0.00 | 72 | 1019.6 |
| 20260504041021 | 18 | 254 | 1.6 | 4.8 | 0.00 | 0.00 | 0.00 | 70 | 1019.5 |
| 20260504040020 | 19 | 233 | 1.6 | 4.8 | 0.00 | 0.00 | 0.00 | 69 | 1019.6 |
| 20260504035017 | 19 | 251 | 3.2 | 4.8 | 0.00 | 0.00 | 0.00 | 69 | 1019.4 |
| 20260504034021 | 19 | 232 | 1.6 | 4.8 | 0.00 | 0.00 | 0.00 | 69 | 1019.6 |
| 20260504033021 | 20 | 258 | 1.6 | 4.8 | 0.00 | 0.00 | 0.00 | 68 | 1019.5 |
| 20260504032022 | 20 | 256 | 1.6 | 6.4 | 0.00 | 0.00 | 0.00 | 67 | 1019.5 |
| 20260504031019 | 20 | 255 | 1.6 | 4.8 | 0.00 | 0.00 | 0.00 | 65 | 1019.4 |
| 20260504030018 | 20 | 263 | 1.6 | 6.4 | 0.00 | 0.00 | 0.00 | 65 | 1019.4 |
| 20260504025018 | 19 | 255 | 1.6 | 3.2 | 0.00 | 0.00 | 0.00 | 65 | 1019.6 |
| 20260504024042 | 20 | 217 | 1.6 | 4.8 | 0.00 | 0.00 | 0.00 | 63 | 1019.4 |
| 20260504023019 | 20 | 232 | 1.6 | 4.8 | 0.00 | 0.00 | 0.00 | 63 | 1019.4 |
| 20260504022019 | 20 | 228 | 1.6 | 4.8 | 0.00 | 0.00 | 0.00 | 63 | 1019.4 |
| 20260504021019 | 20 | 261 | 1.6 | 6.4 | 0.00 | 0.00 | 0.00 | 62 | 1019.4 |
| 20260504020019 | 20 | 232 | 0.0 | 3.2 | 0.00 | 0.00 | 0.00 | 61 | 1019.3 |
| 20260504015017 | 20 | 223 | 3.2 | 8.0 | 0.00 | 0.00 | 0.00 | 60 | 1019.1 |
| 20260504014020 | 20 | 227 | 3.2 | 8.0 | 0.00 | 0.00 | 0.00 | 59 | 1018.9 |
| 20260504013020 | 20 | 226 | 4.8 | 9.7 | 0.00 | 0.00 | 0.00 | 59 | 1018.8 |
| 20260504012041 | 20 | 226 | 3.2 | 9.7 | 0.00 | 0.00 | 0.00 | 58 | 1018.7 |
| 20260504011021 | 21 | 228 | 4.8 | 11.3 | 0.00 | 0.00 | 0.00 | 58 | 1018.6 |
| 20260504010020 | 21 | 229 | 3.2 | 14.5 | 0.00 | 0.00 | 0.00 | 58 | 1018.8 |
| 20260504005041 | 21 | 235 | 4.8 | 14.5 | 0.00 | 0.00 | 0.00 | 57 | 1018.5 |
| 20260504004021 | 21 | 224 | 4.8 | 11.3 | 0.00 | 0.00 | 0.00 | 59 | 1018.5 |
| 20260504003018 | 21 | 226 | 6.4 | 14.5 | 0.00 | 0.00 | 0.00 | 57 | 1018.3 |
| 20260504002019 | 21 | 215 | 3.2 | 11.3 | 0.00 | 0.00 | 0.00 | 54 | 1018.5 |
| 20260504001021 | 22 | 207 | 1.6 | 11.3 | 0.00 | 0.00 | 0.00 | 53 | 1018.6 |
| 20260504000021 | 22 | 207 | 1.6 | 6.4 | 0.00 | 0.00 | 0.00 | 51 | 1018.4 |
| 20260503235019 | 22 | 232 | 3.2 | 9.7 | 0.00 | 0.00 | 0.00 | 50 | 1018.2 |
| 20260503234039 | 22 | 215 | 4.8 | 12.9 | 0.00 | 0.00 | 0.00 | 49 | 1018.0 |
| 20260503233019 | 22 | 226 | 6.4 | 11.3 | 0.00 | 0.00 | 0.00 | 48 | 1017.8 |
| 20260503232019 | 22 | 233 | 4.8 | 9.7 | 0.00 | 0.00 | 0.00 | 49 | 1017.8 |
| 20260503231020 | 22 | 207 | 4.8 | 11.3 | 0.00 | 0.00 | 0.00 | 48 | 1017.8 |
| 20260503230020 | 22 | 206 | 4.8 | 12.9 | 0.00 | 0.00 | 0.00 | 48 | 1017.7 |
| 20260503225020 | 22 | 212 | 4.8 | 12.9 | 0.00 | 0.00 | 0.00 | 46 | 1017.6 |
| 20260503224020 | 22 | 214 | 6.4 | 14.5 | 0.00 | 0.00 | 0.00 | 45 | 1017.6 |
| 20260503223040 | 22 | 196 | 8.0 | 14.5 | 0.00 | 0.00 | 0.00 | 46 | 1017.5 |
| 20260503222020 | 22 | 198 | 8.0 | 12.9 | 0.00 | 0.00 | 0.00 | 46 | 1017.6 |
| 20260503221021 | 22 | 169 | 8.0 | 14.5 | 0.00 | 0.00 | 0.00 | 47 | 1017.7 |
| 20260503220018 | 22 | 186 | 8.0 | 17.7 | 0.00 | 0.00 | 0.00 | 45 | 1017.8 |
| 20260503215017 | 22 | 183 | 6.4 | 14.5 | 0.00 | 0.00 | 0.00 | 46 | 1017.7 |
| 20260503214021 | 22 | 223 | 9.7 | 17.7 | 0.00 | 0.00 | 0.00 | 45 | 1017.7 |
| 20260503213038 | 22 | 208 | 6.4 | 12.9 | 0.00 | 0.00 | 0.00 | 45 | 1017.6 |
| 20260503212018 | 22 | 208 | 8.0 | 14.5 | 0.00 | 0.00 | 0.00 | 44 | 1017.7 |
| 20260503211021 | 22 | 235 | 6.4 | 14.5 | 0.00 | 0.00 | 0.00 | 46 | 1017.6 |
| 20260503210042 | 23 | 224 | 4.8 | 11.3 | 0.00 | 0.03 | 0.00 | 45 | 1017.7 |
| 20260503205019 | 23 | 197 | 4.8 | 11.3 | 0.00 | 0.03 | 0.00 | 44 | 1017.7 |
| 20260503204019 | 23 | 255 | 4.8 | 12.9 | 0.00 | 0.03 | 0.00 | 42 | 1017.6 |